sensor_id;sensor_type;location;lat;lon;timestamp;P1;durP1;ratioP1;P2;durP2;ratioP2
64615;SDS011;51027;42.162;24.754;2023-08-06T03:30:22;24.88;;;15.45;;
64615;SDS011;51027;42.162;24.754;2023-08-06T03:32:47;24.63;;;14.77;;
64615;SDS011;51027;42.162;24.754;2023-08-06T03:35:13;23.88;;;14.45;;
64615;SDS011;51027;42.162;24.754;2023-08-06T03:37:38;24.00;;;15.10;;
64615;SDS011;51027;42.162;24.754;2023-08-06T03:40:04;23.40;;;15.75;;
64615;SDS011;51027;42.162;24.754;2023-08-06T03:42:29;24.23;;;14.80;;
64615;SDS011;51027;42.162;24.754;2023-08-06T03:44:55;24.75;;;15.18;;
64615;SDS011;51027;42.162;24.754;2023-08-06T03:47:20;26.38;;;15.32;;
64615;SDS011;51027;42.162;24.754;2023-08-06T03:49:46;26.27;;;15.60;;
64615;SDS011;51027;42.162;24.754;2023-08-06T03:52:11;23.00;;;14.82;;
64615;SDS011;51027;42.162;24.754;2023-08-06T03:54:36;27.35;;;16.63;;
64615;SDS011;51027;42.162;24.754;2023-08-06T03:57:02;29.13;;;17.20;;
64615;SDS011;51027;42.162;24.754;2023-08-06T03:59:28;25.02;;;16.48;;
64615;SDS011;51027;42.162;24.754;2023-08-06T04:01:53;27.23;;;17.02;;
64615;SDS011;51027;42.162;24.754;2023-08-06T04:04:18;26.23;;;16.30;;
64615;SDS011;51027;42.162;24.754;2023-08-06T04:06:44;28.05;;;16.80;;
64615;SDS011;51027;42.162;24.754;2023-08-06T04:09:09;24.42;;;15.43;;
64615;SDS011;51027;42.162;24.754;2023-08-06T04:11:35;26.95;;;15.95;;
64615;SDS011;51027;42.162;24.754;2023-08-06T04:14:00;25.77;;;15.82;;
64615;SDS011;51027;42.162;24.754;2023-08-06T04:16:26;30.48;;;16.48;;
64615;SDS011;51027;42.162;24.754;2023-08-06T04:18:51;24.70;;;15.88;;
64615;SDS011;51027;42.162;24.754;2023-08-06T04:21:18;28.70;;;17.30;;
64615;SDS011;51027;42.162;24.754;2023-08-06T04:23:44;26.25;;;16.33;;
64615;SDS011;51027;42.162;24.754;2023-08-06T04:26:09;27.20;;;17.63;;
64615;SDS011;51027;42.162;24.754;2023-08-06T04:28:34;23.98;;;16.05;;
64615;SDS011;51027;42.162;24.754;2023-08-06T04:31:00;27.35;;;17.00;;
64615;SDS011;51027;42.162;24.754;2023-08-06T04:33:25;28.20;;;18.27;;
64615;SDS011;51027;42.162;24.754;2023-08-06T04:35:54;29.38;;;18.90;;
64615;SDS011;51027;42.162;24.754;2023-08-06T04:38:20;28.42;;;18.63;;
64615;SDS011;51027;42.162;24.754;2023-08-06T04:40:46;27.63;;;18.00;;
64615;SDS011;51027;42.162;24.754;2023-08-06T04:43:11;28.02;;;18.27;;
64615;SDS011;51027;42.162;24.754;2023-08-06T04:45:36;29.52;;;18.67;;
64615;SDS011;51027;42.162;24.754;2023-08-06T04:48:02;29.20;;;19.08;;
64615;SDS011;51027;42.162;24.754;2023-08-06T04:50:27;31.60;;;19.30;;
64615;SDS011;51027;42.162;24.754;2023-08-06T04:52:53;28.38;;;19.08;;
64615;SDS011;51027;42.162;24.754;2023-08-06T04:55:18;32.00;;;20.58;;
64615;SDS011;51027;42.162;24.754;2023-08-06T04:57:43;30.13;;;20.67;;
64615;SDS011;51027;42.162;24.754;2023-08-06T05:00:10;31.73;;;20.45;;
64615;SDS011;51027;42.162;24.754;2023-08-06T05:02:36;30.05;;;19.40;;
64615;SDS011;51027;42.162;24.754;2023-08-06T05:05:03;30.00;;;19.40;;
64615;SDS011;51027;42.162;24.754;2023-08-06T05:07:29;30.77;;;20.10;;
64615;SDS011;51027;42.162;24.754;2023-08-06T05:09:54;32.58;;;20.70;;
64615;SDS011;51027;42.162;24.754;2023-08-06T05:12:20;33.58;;;20.63;;
64615;SDS011;51027;42.162;24.754;2023-08-06T05:14:45;30.05;;;20.27;;
64615;SDS011;51027;42.162;24.754;2023-08-06T05:17:11;29.73;;;19.65;;
64615;SDS011;51027;42.162;24.754;2023-08-06T05:19:36;32.83;;;20.13;;
64615;SDS011;51027;42.162;24.754;2023-08-06T05:22:01;31.77;;;18.98;;
64615;SDS011;51027;42.162;24.754;2023-08-06T05:24:27;30.17;;;19.40;;
64615;SDS011;51027;42.162;24.754;2023-08-06T05:26:52;34.60;;;21.55;;
64615;SDS011;51027;42.162;24.754;2023-08-06T05:29:18;31.67;;;20.90;;
64615;SDS011;51027;42.162;24.754;2023-08-06T05:31:43;32.13;;;21.50;;
64615;SDS011;51027;42.162;24.754;2023-08-06T05:34:09;30.95;;;20.13;;
64615;SDS011;51027;42.162;24.754;2023-08-06T05:36:34;31.65;;;20.80;;
64615;SDS011;51027;42.162;24.754;2023-08-06T05:38:59;33.53;;;22.40;;
64615;SDS011;51027;42.162;24.754;2023-08-06T05:41:25;36.05;;;22.55;;
64615;SDS011;51027;42.162;24.754;2023-08-06T05:43:50;30.38;;;20.60;;
64615;SDS011;51027;42.162;24.754;2023-08-06T05:46:16;32.78;;;19.17;;
64615;SDS011;51027;42.162;24.754;2023-08-06T05:48:41;24.92;;;14.85;;
64615;SDS011;51027;42.162;24.754;2023-08-06T05:51:06;22.17;;;12.65;;
64615;SDS011;51027;42.162;24.754;2023-08-06T05:53:32;23.40;;;13.52;;
64615;SDS011;51027;42.162;24.754;2023-08-06T05:55:58;23.92;;;9.73;;
64615;SDS011;51027;42.162;24.754;2023-08-06T05:58:23;21.10;;;9.30;;
64615;SDS011;51027;42.162;24.754;2023-08-06T06:00:51;19.95;;;9.02;;
64615;SDS011;51027;42.162;24.754;2023-08-06T06:03:16;18.90;;;9.45;;
64615;SDS011;51027;42.162;24.754;2023-08-06T06:05:42;21.98;;;9.48;;
64615;SDS011;51027;42.162;24.754;2023-08-06T06:08:07;20.05;;;8.60;;
64615;SDS011;51027;42.162;24.754;2023-08-06T06:10:33;22.92;;;9.10;;
64615;SDS011;51027;42.162;24.754;2023-08-06T06:12:58;23.13;;;9.93;;
64615;SDS011;51027;42.162;24.754;2023-08-06T06:15:23;19.85;;;9.05;;
64615;SDS011;51027;42.162;24.754;2023-08-06T06:17:49;22.20;;;9.80;;
64615;SDS011;51027;42.162;24.754;2023-08-06T06:20:14;18.15;;;8.52;;
64615;SDS011;51027;42.162;24.754;2023-08-06T06:22:39;18.25;;;8.90;;
64615;SDS011;51027;42.162;24.754;2023-08-06T06:25:05;21.27;;;11.52;;
64615;SDS011;51027;42.162;24.754;2023-08-06T06:27:31;19.45;;;9.43;;
64615;SDS011;51027;42.162;24.754;2023-08-06T06:29:56;18.52;;;8.93;;
64615;SDS011;51027;42.162;24.754;2023-08-06T06:32:22;18.85;;;9.50;;
64615;SDS011;51027;42.162;24.754;2023-08-06T06:34:47;19.92;;;9.52;;
64615;SDS011;51027;42.162;24.754;2023-08-06T06:37:13;18.17;;;9.00;;
64615;SDS011;51027;42.162;24.754;2023-08-06T06:39:38;19.65;;;9.52;;
64615;SDS011;51027;42.162;24.754;2023-08-06T06:42:04;19.20;;;9.38;;
64615;SDS011;51027;42.162;24.754;2023-08-06T06:44:29;18.33;;;8.82;;
64615;SDS011;51027;42.162;24.754;2023-08-06T06:46:55;18.63;;;8.65;;
64615;SDS011;51027;42.162;24.754;2023-08-06T06:49:20;19.98;;;8.68;;
64615;SDS011;51027;42.162;24.754;2023-08-06T06:51:46;19.88;;;9.15;;
64615;SDS011;51027;42.162;24.754;2023-08-06T06:54:11;21.10;;;10.13;;
64615;SDS011;51027;42.162;24.754;2023-08-06T06:56:37;19.20;;;8.88;;
64615;SDS011;51027;42.162;24.754;2023-08-06T06:59:02;18.73;;;9.68;;
64615;SDS011;51027;42.162;24.754;2023-08-06T07:01:27;20.05;;;9.52;;
64615;SDS011;51027;42.162;24.754;2023-08-06T07:03:53;19.38;;;9.50;;
64615;SDS011;51027;42.162;24.754;2023-08-06T07:06:18;21.00;;;9.00;;
64615;SDS011;51027;42.162;24.754;2023-08-06T07:08:44;20.83;;;9.98;;
64615;SDS011;51027;42.162;24.754;2023-08-06T07:11:10;22.77;;;10.93;;
64615;SDS011;51027;42.162;24.754;2023-08-06T07:13:35;19.95;;;10.93;;
64615;SDS011;51027;42.162;24.754;2023-08-06T07:16:01;21.15;;;10.43;;
64615;SDS011;51027;42.162;24.754;2023-08-06T07:18:26;23.25;;;11.52;;
64615;SDS011;51027;42.162;24.754;2023-08-06T07:20:52;19.13;;;10.30;;
64615;SDS011;51027;42.162;24.754;2023-08-06T07:23:22;20.52;;;9.70;;
64615;SDS011;51027;42.162;24.754;2023-08-06T07:25:49;19.92;;;10.32;;
64615;SDS011;51027;42.162;24.754;2023-08-06T07:28:15;19.15;;;9.43;;
64615;SDS011;51027;42.162;24.754;2023-08-06T07:30:41;18.02;;;8.95;;
64615;SDS011;51027;42.162;24.754;2023-08-06T07:33:08;19.70;;;9.63;;
64615;SDS011;51027;42.162;24.754;2023-08-06T07:35:33;18.67;;;8.80;;
64615;SDS011;51027;42.162;24.754;2023-08-06T07:37:59;20.80;;;9.23;;
64615;SDS011;51027;42.162;24.754;2023-08-06T07:40:24;22.70;;;10.38;;
64615;SDS011;51027;42.162;24.754;2023-08-06T07:42:50;20.30;;;10.25;;
64615;SDS011;51027;42.162;24.754;2023-08-06T07:45:15;19.75;;;9.82;;
64615;SDS011;51027;42.162;24.754;2023-08-06T07:47:41;19.70;;;10.40;;
64615;SDS011;51027;42.162;24.754;2023-08-06T07:50:07;20.02;;;10.38;;
64615;SDS011;51027;42.162;24.754;2023-08-06T07:52:33;23.90;;;10.60;;
64615;SDS011;51027;42.162;24.754;2023-08-06T07:54:59;23.40;;;11.30;;
64615;SDS011;51027;42.162;24.754;2023-08-06T07:57:26;21.13;;;11.00;;
64615;SDS011;51027;42.162;24.754;2023-08-06T07:59:52;21.85;;;11.27;;
64615;SDS011;51027;42.162;24.754;2023-08-06T08:02:18;20.90;;;10.88;;
64615;SDS011;51027;42.162;24.754;2023-08-06T08:04:44;21.13;;;10.85;;
64615;SDS011;51027;42.162;24.754;2023-08-06T08:07:12;22.13;;;11.15;;
64615;SDS011;51027;42.162;24.754;2023-08-06T08:09:38;21.33;;;11.88;;
64615;SDS011;51027;42.162;24.754;2023-08-06T08:12:03;23.30;;;12.63;;
64615;SDS011;51027;42.162;24.754;2023-08-06T08:14:29;21.40;;;12.27;;
64615;SDS011;51027;42.162;24.754;2023-08-06T08:17:00;22.70;;;12.55;;
64615;SDS011;51027;42.162;24.754;2023-08-06T08:19:26;23.58;;;11.98;;
64615;SDS011;51027;42.162;24.754;2023-08-06T08:21:51;23.70;;;13.57;;
64615;SDS011;51027;42.162;24.754;2023-08-06T08:24:17;22.77;;;12.88;;
64615;SDS011;51027;42.162;24.754;2023-08-06T08:26:44;21.80;;;12.15;;
64615;SDS011;51027;42.162;24.754;2023-08-06T08:29:10;21.13;;;11.63;;
64615;SDS011;51027;42.162;24.754;2023-08-06T08:31:35;22.25;;;11.65;;
64615;SDS011;51027;42.162;24.754;2023-08-06T08:34:04;23.88;;;12.18;;
64615;SDS011;51027;42.162;24.754;2023-08-06T08:36:30;21.73;;;12.35;;
64615;SDS011;51027;42.162;24.754;2023-08-06T08:38:56;21.40;;;11.88;;
64615;SDS011;51027;42.162;24.754;2023-08-06T08:41:21;23.67;;;13.27;;
64615;SDS011;51027;42.162;24.754;2023-08-06T08:43:47;21.33;;;11.80;;
64615;SDS011;51027;42.162;24.754;2023-08-06T08:46:16;23.50;;;12.80;;
64615;SDS011;51027;42.162;24.754;2023-08-06T08:48:43;23.48;;;11.85;;
64615;SDS011;51027;42.162;24.754;2023-08-06T08:51:09;21.17;;;11.27;;
64615;SDS011;51027;42.162;24.754;2023-08-06T08:53:36;22.52;;;12.23;;
64615;SDS011;51027;42.162;24.754;2023-08-06T08:56:04;21.65;;;11.25;;
64615;SDS011;51027;42.162;24.754;2023-08-06T08:58:30;22.55;;;11.75;;
64615;SDS011;51027;42.162;24.754;2023-08-06T09:00:56;23.85;;;12.32;;
64615;SDS011;51027;42.162;24.754;2023-08-06T09:03:23;22.50;;;12.57;;
64615;SDS011;51027;42.162;24.754;2023-08-06T09:05:49;24.05;;;13.40;;
64615;SDS011;51027;42.162;24.754;2023-08-06T09:10:46;23.23;;;12.65;;
64615;SDS011;51027;42.162;24.754;2023-08-06T09:13:13;22.52;;;11.23;;
64615;SDS011;51027;42.162;24.754;2023-08-06T09:15:39;20.67;;;10.57;;
64615;SDS011;51027;42.162;24.754;2023-08-06T09:18:11;20.10;;;9.30;;
64615;SDS011;51027;42.162;24.754;2023-08-06T09:20:40;19.02;;;9.25;;
64615;SDS011;51027;42.162;24.754;2023-08-06T09:23:08;17.75;;;9.02;;
64615;SDS011;51027;42.162;24.754;2023-08-06T09:25:36;17.65;;;8.43;;
64615;SDS011;51027;42.162;24.754;2023-08-06T09:28:04;14.90;;;6.65;;
64615;SDS011;51027;42.162;24.754;2023-08-06T09:30:30;15.13;;;5.80;;
64615;SDS011;51027;42.162;24.754;2023-08-06T09:32:57;14.45;;;5.57;;
64615;SDS011;51027;42.162;24.754;2023-08-06T09:35:23;14.45;;;5.55;;
64615;SDS011;51027;42.162;24.754;2023-08-06T09:37:48;13.00;;;5.03;;
64615;SDS011;51027;42.162;24.754;2023-08-06T09:40:28;13.30;;;4.65;;
64615;SDS011;51027;42.162;24.754;2023-08-06T09:42:57;14.50;;;5.53;;
64615;SDS011;51027;42.162;24.754;2023-08-06T09:45:24;13.27;;;5.00;;
64615;SDS011;51027;42.162;24.754;2023-08-06T09:47:55;13.30;;;5.30;;
64615;SDS011;51027;42.162;24.754;2023-08-06T09:50:21;13.52;;;5.50;;
64615;SDS011;51027;42.162;24.754;2023-08-06T09:52:47;14.13;;;5.75;;
64615;SDS011;51027;42.162;24.754;2023-08-06T09:55:13;13.40;;;5.35;;
64615;SDS011;51027;42.162;24.754;2023-08-06T09:57:40;13.35;;;5.30;;
64615;SDS011;51027;42.162;24.754;2023-08-06T10:00:07;16.45;;;5.78;;
64615;SDS011;51027;42.162;24.754;2023-08-06T10:02:40;14.38;;;5.70;;
64615;SDS011;51027;42.162;24.754;2023-08-06T10:07:32;15.63;;;6.65;;
64615;SDS011;51027;42.162;24.754;2023-08-06T10:09:58;15.52;;;6.72;;
64615;SDS011;51027;42.162;24.754;2023-08-06T10:12:24;15.85;;;7.72;;
64615;SDS011;51027;42.162;24.754;2023-08-06T10:14:54;16.33;;;6.97;;
64615;SDS011;51027;42.162;24.754;2023-08-06T10:17:21;15.13;;;6.95;;
64615;SDS011;51027;42.162;24.754;2023-08-06T10:19:48;17.92;;;6.72;;
64615;SDS011;51027;42.162;24.754;2023-08-06T10:22:15;15.77;;;7.55;;
64615;SDS011;51027;42.162;24.754;2023-08-06T10:32:49;14.73;;;6.70;;
64615;SDS011;51027;42.162;24.754;2023-08-06T10:35:27;15.30;;;6.50;;
64615;SDS011;51027;42.162;24.754;2023-08-06T10:37:53;15.23;;;6.60;;
64615;SDS011;51027;42.162;24.754;2023-08-06T10:40:20;14.75;;;6.18;;
64615;SDS011;51027;42.162;24.754;2023-08-06T10:42:46;14.43;;;6.35;;
64615;SDS011;51027;42.162;24.754;2023-08-06T10:45:15;15.45;;;7.03;;
64615;SDS011;51027;42.162;24.754;2023-08-06T10:47:45;15.18;;;6.55;;
64615;SDS011;51027;42.162;24.754;2023-08-06T10:50:11;14.98;;;6.68;;
64615;SDS011;51027;42.162;24.754;2023-08-06T10:52:45;15.50;;;6.50;;
64615;SDS011;51027;42.162;24.754;2023-08-06T10:55:11;18.90;;;7.40;;
64615;SDS011;51027;42.162;24.754;2023-08-06T10:57:37;15.55;;;6.68;;
64615;SDS011;51027;42.162;24.754;2023-08-06T11:00:04;15.38;;;6.82;;
64615;SDS011;51027;42.162;24.754;2023-08-06T11:02:34;15.18;;;6.65;;
64615;SDS011;51027;42.162;24.754;2023-08-06T11:05:07;16.17;;;6.60;;
64615;SDS011;51027;42.162;24.754;2023-08-06T11:07:34;15.57;;;5.88;;
64615;SDS011;51027;42.162;24.754;2023-08-06T11:10:06;16.02;;;6.72;;
64615;SDS011;51027;42.162;24.754;2023-08-06T11:12:33;15.07;;;6.47;;
64615;SDS011;51027;42.162;24.754;2023-08-06T11:15:01;15.38;;;5.90;;
64615;SDS011;51027;42.162;24.754;2023-08-06T11:17:28;14.70;;;6.25;;
64615;SDS011;51027;42.162;24.754;2023-08-06T11:19:55;13.35;;;5.65;;
64615;SDS011;51027;42.162;24.754;2023-08-06T11:22:21;16.23;;;6.32;;
64615;SDS011;51027;42.162;24.754;2023-08-06T11:24:47;12.68;;;5.20;;
64615;SDS011;51027;42.162;24.754;2023-08-06T11:27:14;14.68;;;5.80;;
64615;SDS011;51027;42.162;24.754;2023-08-06T11:29:40;13.75;;;5.43;;
64615;SDS011;51027;42.162;24.754;2023-08-06T11:32:10;14.63;;;5.78;;
64615;SDS011;51027;42.162;24.754;2023-08-06T11:34:36;14.63;;;5.22;;
64615;SDS011;51027;42.162;24.754;2023-08-06T11:37:05;14.90;;;5.38;;
64615;SDS011;51027;42.162;24.754;2023-08-06T11:39:34;13.77;;;5.25;;
64615;SDS011;51027;42.162;24.754;2023-08-06T11:42:02;12.63;;;5.47;;
64615;SDS011;51027;42.162;24.754;2023-08-06T11:44:32;13.40;;;4.57;;
64615;SDS011;51027;42.162;24.754;2023-08-06T11:47:01;11.75;;;4.45;;
64615;SDS011;51027;42.162;24.754;2023-08-06T11:49:44;11.00;;;4.82;;
64615;SDS011;51027;42.162;24.754;2023-08-06T11:52:21;12.52;;;4.63;;
64615;SDS011;51027;42.162;24.754;2023-08-06T11:55:05;13.30;;;4.80;;
64615;SDS011;51027;42.162;24.754;2023-08-06T11:57:33;14.13;;;4.50;;
64615;SDS011;51027;42.162;24.754;2023-08-06T12:00:07;11.48;;;4.03;;
64615;SDS011;51027;42.162;24.754;2023-08-06T12:02:34;9.85;;;3.88;;
64615;SDS011;51027;42.162;24.754;2023-08-06T12:07:49;9.13;;;3.85;;
64615;SDS011;51027;42.162;24.754;2023-08-06T12:10:18;9.25;;;3.97;;
64615;SDS011;51027;42.162;24.754;2023-08-06T12:12:45;7.47;;;3.63;;
64615;SDS011;51027;42.162;24.754;2023-08-06T12:15:11;8.57;;;3.55;;
64615;SDS011;51027;42.162;24.754;2023-08-06T12:17:36;10.38;;;4.00;;
64615;SDS011;51027;42.162;24.754;2023-08-06T12:20:03;9.35;;;3.80;;
64615;SDS011;51027;42.162;24.754;2023-08-06T12:22:29;14.35;;;4.78;;
64615;SDS011;51027;42.162;24.754;2023-08-06T12:24:59;9.68;;;3.78;;
64615;SDS011;51027;42.162;24.754;2023-08-06T12:27:25;11.77;;;3.92;;
64615;SDS011;51027;42.162;24.754;2023-08-06T12:29:51;10.50;;;3.95;;
64615;SDS011;51027;42.162;24.754;2023-08-06T12:32:17;10.23;;;3.70;;
64615;SDS011;51027;42.162;24.754;2023-08-06T12:34:42;10.63;;;4.10;;
64615;SDS011;51027;42.162;24.754;2023-08-06T12:37:08;12.73;;;3.97;;
64615;SDS011;51027;42.162;24.754;2023-08-06T12:39:37;10.38;;;4.10;;
64615;SDS011;51027;42.162;24.754;2023-08-06T12:42:03;11.88;;;3.90;;
64615;SDS011;51027;42.162;24.754;2023-08-06T12:44:29;12.75;;;4.25;;
64615;SDS011;51027;42.162;24.754;2023-08-06T12:46:55;11.50;;;4.07;;
64615;SDS011;51027;42.162;24.754;2023-08-06T12:49:20;11.18;;;3.90;;
64615;SDS011;51027;42.162;24.754;2023-08-06T12:51:47;9.88;;;3.83;;
64615;SDS011;51027;42.162;24.754;2023-08-06T12:54:13;9.43;;;3.20;;
64615;SDS011;51027;42.162;24.754;2023-08-06T12:56:39;12.15;;;4.13;;
64615;SDS011;51027;42.162;24.754;2023-08-06T12:59:04;12.25;;;4.20;;
64615;SDS011;51027;42.162;24.754;2023-08-06T13:01:30;10.85;;;4.07;;
64615;SDS011;51027;42.162;24.754;2023-08-06T13:03:55;10.20;;;3.75;;
64615;SDS011;51027;42.162;24.754;2023-08-06T13:06:20;8.93;;;3.80;;
64615;SDS011;51027;42.162;24.754;2023-08-06T13:08:46;8.98;;;3.60;;
64615;SDS011;51027;42.162;24.754;2023-08-06T13:11:11;8.25;;;3.47;;
64615;SDS011;51027;42.162;24.754;2023-08-06T13:13:36;11.18;;;4.28;;
64615;SDS011;51027;42.162;24.754;2023-08-06T13:16:02;10.20;;;3.75;;
64615;SDS011;51027;42.162;24.754;2023-08-06T13:18:28;11.18;;;4.00;;
64615;SDS011;51027;42.162;24.754;2023-08-06T13:20:54;9.25;;;3.72;;
64615;SDS011;51027;42.162;24.754;2023-08-06T13:23:20;8.98;;;3.67;;
64615;SDS011;51027;42.162;24.754;2023-08-06T13:25:45;8.57;;;3.60;;
64615;SDS011;51027;42.162;24.754;2023-08-06T13:28:11;9.35;;;3.53;;
64615;SDS011;51027;42.162;24.754;2023-08-06T13:30:36;8.10;;;3.50;;
64615;SDS011;51027;42.162;24.754;2023-08-06T13:33:07;8.95;;;3.67;;
64615;SDS011;51027;42.162;24.754;2023-08-06T13:35:33;9.93;;;3.75;;
64615;SDS011;51027;42.162;24.754;2023-08-06T13:37:59;10.52;;;3.53;;
64615;SDS011;51027;42.162;24.754;2023-08-06T13:40:24;9.95;;;3.58;;
64615;SDS011;51027;42.162;24.754;2023-08-06T13:42:49;8.18;;;3.40;;
64615;SDS011;51027;42.162;24.754;2023-08-06T13:45:15;9.70;;;3.55;;
64615;SDS011;51027;42.162;24.754;2023-08-06T13:47:41;10.52;;;3.50;;
64615;SDS011;51027;42.162;24.754;2023-08-06T13:50:06;8.52;;;3.47;;
64615;SDS011;51027;42.162;24.754;2023-08-06T13:52:33;11.38;;;3.45;;
64615;SDS011;51027;42.162;24.754;2023-08-06T13:55:00;9.50;;;3.13;;
64615;SDS011;51027;42.162;24.754;2023-08-06T13:57:25;8.80;;;3.30;;
64615;SDS011;51027;42.162;24.754;2023-08-06T13:59:51;8.35;;;3.00;;
64615;SDS011;51027;42.162;24.754;2023-08-06T14:02:16;9.63;;;3.35;;
64615;SDS011;51027;42.162;24.754;2023-08-06T14:04:42;10.23;;;3.38;;
64615;SDS011;51027;42.162;24.754;2023-08-06T14:07:07;11.45;;;3.75;;
64615;SDS011;51027;42.162;24.754;2023-08-06T14:09:32;8.63;;;3.47;;
64615;SDS011;51027;42.162;24.754;2023-08-06T14:11:59;8.57;;;3.10;;
64615;SDS011;51027;42.162;24.754;2023-08-06T14:14:25;10.35;;;3.50;;
64615;SDS011;51027;42.162;24.754;2023-08-06T14:16:52;8.45;;;3.03;;
64615;SDS011;51027;42.162;24.754;2023-08-06T14:19:19;8.30;;;3.15;;
64615;SDS011;51027;42.162;24.754;2023-08-06T14:21:44;9.43;;;3.33;;
64615;SDS011;51027;42.162;24.754;2023-08-06T14:24:09;10.13;;;3.47;;
64615;SDS011;51027;42.162;24.754;2023-08-06T14:26:35;6.32;;;3.00;;
64615;SDS011;51027;42.162;24.754;2023-08-06T14:29:01;7.53;;;3.10;;
64615;SDS011;51027;42.162;24.754;2023-08-06T14:31:26;9.52;;;3.10;;
64615;SDS011;51027;42.162;24.754;2023-08-06T14:33:52;8.95;;;3.30;;
64615;SDS011;51027;42.162;24.754;2023-08-06T14:36:18;8.45;;;3.30;;
64615;SDS011;51027;42.162;24.754;2023-08-06T14:38:43;8.65;;;3.42;;
64615;SDS011;51027;42.162;24.754;2023-08-06T14:41:09;7.03;;;3.03;;
64615;SDS011;51027;42.162;24.754;2023-08-06T14:43:34;9.35;;;3.30;;
64615;SDS011;51027;42.162;24.754;2023-08-06T14:46:00;9.23;;;3.70;;
64615;SDS011;51027;42.162;24.754;2023-08-06T14:48:25;9.95;;;3.50;;
64615;SDS011;51027;42.162;24.754;2023-08-06T14:50:51;8.25;;;3.22;;
64615;SDS011;51027;42.162;24.754;2023-08-06T14:53:16;12.00;;;3.70;;
64615;SDS011;51027;42.162;24.754;2023-08-06T14:55:42;8.98;;;3.75;;
64615;SDS011;51027;42.162;24.754;2023-08-06T14:58:07;9.30;;;3.10;;
64615;SDS011;51027;42.162;24.754;2023-08-06T15:00:32;4.80;;;2.80;;
64615;SDS011;51027;42.162;24.754;2023-08-06T15:02:58;8.10;;;3.08;;
64615;SDS011;51027;42.162;24.754;2023-08-06T15:05:24;8.07;;;3.00;;
64615;SDS011;51027;42.162;24.754;2023-08-06T15:07:50;9.10;;;3.28;;
64615;SDS011;51027;42.162;24.754;2023-08-06T15:10:17;8.18;;;3.00;;
64615;SDS011;51027;42.162;24.754;2023-08-06T15:12:43;6.82;;;3.17;;
64615;SDS011;51027;42.162;24.754;2023-08-06T15:15:09;8.27;;;3.38;;
64615;SDS011;51027;42.162;24.754;2023-08-06T15:17:34;8.05;;;3.03;;
64615;SDS011;51027;42.162;24.754;2023-08-06T15:20:00;9.65;;;3.17;;
64615;SDS011;51027;42.162;24.754;2023-08-06T15:22:26;8.02;;;3.00;;
64615;SDS011;51027;42.162;24.754;2023-08-06T15:24:51;7.18;;;3.25;;
64615;SDS011;51027;42.162;24.754;2023-08-06T15:27:17;6.07;;;2.75;;
64615;SDS011;51027;42.162;24.754;2023-08-06T15:29:43;7.55;;;2.95;;
64615;SDS011;51027;42.162;24.754;2023-08-06T15:32:09;6.53;;;2.90;;
64615;SDS011;51027;42.162;24.754;2023-08-06T15:34:35;7.00;;;3.00;;
64615;SDS011;51027;42.162;24.754;2023-08-06T15:37:00;7.30;;;3.08;;
64615;SDS011;51027;42.162;24.754;2023-08-06T15:39:26;11.50;;;3.10;;
64615;SDS011;51027;42.162;24.754;2023-08-06T15:41:51;10.55;;;3.30;;
64615;SDS011;51027;42.162;24.754;2023-08-06T15:44:17;7.55;;;3.08;;
64615;SDS011;51027;42.162;24.754;2023-08-06T15:46:42;7.38;;;2.80;;
64615;SDS011;51027;42.162;24.754;2023-08-06T15:49:08;6.38;;;2.97;;
64615;SDS011;51027;42.162;24.754;2023-08-06T15:51:33;7.32;;;3.20;;
64615;SDS011;51027;42.162;24.754;2023-08-06T15:53:59;10.07;;;3.20;;
64615;SDS011;51027;42.162;24.754;2023-08-06T15:56:24;7.90;;;3.40;;
64615;SDS011;51027;42.162;24.754;2023-08-06T15:58:50;10.07;;;3.35;;
64615;SDS011;51027;42.162;24.754;2023-08-06T16:01:15;7.38;;;3.28;;
64615;SDS011;51027;42.162;24.754;2023-08-06T16:03:41;8.27;;;3.40;;
64615;SDS011;51027;42.162;24.754;2023-08-06T16:06:09;9.83;;;3.60;;
64615;SDS011;51027;42.162;24.754;2023-08-06T16:08:36;9.90;;;3.58;;
64615;SDS011;51027;42.162;24.754;2023-08-06T16:11:02;10.50;;;3.90;;
64615;SDS011;51027;42.162;24.754;2023-08-06T16:13:29;8.35;;;3.35;;
64615;SDS011;51027;42.162;24.754;2023-08-06T16:15:55;9.65;;;3.70;;
64615;SDS011;51027;42.162;24.754;2023-08-06T16:18:20;10.02;;;3.67;;
64615;SDS011;51027;42.162;24.754;2023-08-06T16:20:46;10.95;;;3.88;;
64615;SDS011;51027;42.162;24.754;2023-08-06T16:23:11;9.88;;;3.70;;
64615;SDS011;51027;42.162;24.754;2023-08-06T16:25:37;8.80;;;3.70;;
64615;SDS011;51027;42.162;24.754;2023-08-06T16:28:03;11.32;;;4.35;;
64615;SDS011;51027;42.162;24.754;2023-08-06T16:30:29;10.00;;;3.65;;
64615;SDS011;51027;42.162;24.754;2023-08-06T16:32:57;9.70;;;3.50;;
64615;SDS011;51027;42.162;24.754;2023-08-06T16:35:22;8.50;;;3.35;;
64615;SDS011;51027;42.162;24.754;2023-08-06T16:37:48;10.18;;;3.65;;
64615;SDS011;51027;42.162;24.754;2023-08-06T16:40:14;10.40;;;3.55;;
64615;SDS011;51027;42.162;24.754;2023-08-06T16:42:41;8.05;;;3.30;;
64615;SDS011;51027;42.162;24.754;2023-08-06T16:45:06;11.38;;;4.15;;
64615;SDS011;51027;42.162;24.754;2023-08-06T16:47:32;10.55;;;3.85;;
64615;SDS011;51027;42.162;24.754;2023-08-06T16:49:58;8.30;;;3.40;;
64615;SDS011;51027;42.162;24.754;2023-08-06T16:52:23;11.48;;;4.18;;
64615;SDS011;51027;42.162;24.754;2023-08-06T16:54:49;8.30;;;3.30;;
64615;SDS011;51027;42.162;24.754;2023-08-06T16:57:14;10.95;;;3.65;;
64615;SDS011;51027;42.162;24.754;2023-08-06T16:59:40;9.75;;;3.67;;
64615;SDS011;51027;42.162;24.754;2023-08-06T17:02:05;9.85;;;3.70;;
64615;SDS011;51027;42.162;24.754;2023-08-06T17:04:32;10.80;;;3.63;;
64615;SDS011;51027;42.162;24.754;2023-08-06T17:06:57;10.38;;;3.78;;
64615;SDS011;51027;42.162;24.754;2023-08-06T17:09:23;9.65;;;3.80;;
64615;SDS011;51027;42.162;24.754;2023-08-06T17:11:49;11.10;;;4.30;;
64615;SDS011;51027;42.162;24.754;2023-08-06T17:14:15;8.48;;;3.33;;
64615;SDS011;51027;42.162;24.754;2023-08-06T17:16:41;10.63;;;3.95;;
64615;SDS011;51027;42.162;24.754;2023-08-06T17:19:06;10.75;;;3.97;;
64615;SDS011;51027;42.162;24.754;2023-08-06T17:21:32;8.93;;;3.60;;
64615;SDS011;51027;42.162;24.754;2023-08-06T17:23:58;12.45;;;4.13;;
64615;SDS011;51027;42.162;24.754;2023-08-06T17:26:24;14.07;;;4.10;;
64615;SDS011;51027;42.162;24.754;2023-08-06T17:28:49;13.88;;;4.10;;
64615;SDS011;51027;42.162;24.754;2023-08-06T17:31:15;10.02;;;3.83;;
64615;SDS011;51027;42.162;24.754;2023-08-06T17:33:40;10.23;;;3.90;;
64615;SDS011;51027;42.162;24.754;2023-08-06T17:36:06;10.00;;;3.72;;
64615;SDS011;51027;42.162;24.754;2023-08-06T17:38:31;13.68;;;4.63;;
64615;SDS011;51027;42.162;24.754;2023-08-06T17:40:57;15.38;;;5.25;;
64615;SDS011;51027;42.162;24.754;2023-08-06T17:43:22;14.63;;;4.80;;
64615;SDS011;51027;42.162;24.754;2023-08-06T17:45:48;13.10;;;5.00;;
64615;SDS011;51027;42.162;24.754;2023-08-06T17:48:14;14.68;;;5.40;;
64615;SDS011;51027;42.162;24.754;2023-08-06T17:50:45;15.93;;;6.23;;
64615;SDS011;51027;42.162;24.754;2023-08-06T17:53:11;15.82;;;5.60;;
64615;SDS011;51027;42.162;24.754;2023-08-06T17:55:37;18.83;;;5.72;;
64615;SDS011;51027;42.162;24.754;2023-08-06T17:58:02;14.32;;;5.20;;
64615;SDS011;51027;42.162;24.754;2023-08-06T18:00:27;13.52;;;4.78;;